sensor_id;sensor_type;location;lat;lon;timestamp;pressure;altitude;pressure_sealevel;temperature;humidity
31403;BME280;18039;52.188;21.024;2023-02-23T00:01:52;78391.41;;;-141.45;62.43
31403;BME280;18039;52.188;21.024;2023-02-23T00:04:21;78407.63;;;-141.45;63.00
31403;BME280;18039;52.188;21.024;2023-02-23T00:06:50;78421.81;;;-141.45;63.05
31403;BME280;18039;52.188;21.024;2023-02-23T00:09:21;78434.00;;;-141.45;63.31
31403;BME280;18039;52.188;21.024;2023-02-23T00:11:54;78434.00;;;-141.45;63.43
31403;BME280;18039;52.188;21.024;2023-02-23T00:14:25;78425.88;;;-141.45;63.62
31403;BME280;18039;52.188;21.024;2023-02-23T00:16:57;78417.78;;;-141.45;63.43
31403;BME280;18039;52.188;21.024;2023-02-23T00:19:26;78417.78;;;-141.45;63.77
31403;BME280;18039;52.188;21.024;2023-02-23T00:21:53;78409.66;;;-141.45;64.15
31403;BME280;18039;52.188;21.024;2023-02-23T00:24:21;78409.66;;;-141.45;64.15
31403;BME280;18039;52.188;21.024;2023-02-23T00:26:49;78401.53;;;-141.45;63.73
31403;BME280;18039;52.188;21.024;2023-02-23T00:29:20;78401.53;;;-141.45;64.06
31403;BME280;18039;52.188;21.024;2023-02-23T00:31:48;78401.53;;;-141.45;64.39
31403;BME280;18039;52.188;21.024;2023-02-23T00:34:20;78401.53;;;-141.45;64.16
31403;BME280;18039;52.188;21.024;2023-02-23T00:36:52;78405.59;;;-141.45;64.52
31403;BME280;18039;52.188;21.024;2023-02-23T00:39:25;78401.53;;;-141.45;64.59
31403;BME280;18039;52.188;21.024;2023-02-23T00:41:56;78405.59;;;-141.45;64.64
31403;BME280;18039;52.188;21.024;2023-02-23T00:44:30;78395.47;;;-141.45;64.80
31403;BME280;18039;52.188;21.024;2023-02-23T00:46:59;78389.38;;;-141.45;64.67
31403;BME280;18039;52.188;21.024;2023-02-23T00:49:26;78393.44;;;-141.45;64.96
31403;BME280;18039;52.188;21.024;2023-02-23T00:51:53;78393.44;;;-141.45;65.14
31403;BME280;18039;52.188;21.024;2023-02-23T00:54:21;78389.38;;;-141.45;65.35
31403;BME280;18039;52.188;21.024;2023-02-23T00:56:49;78389.38;;;-141.45;65.58
31403;BME280;18039;52.188;21.024;2023-02-23T00:59:17;78393.44;;;-141.45;65.48
31403;BME280;18039;52.188;21.024;2023-02-23T01:01:45;78399.50;;;-141.45;65.74
31403;BME280;18039;52.188;21.024;2023-02-23T01:04:12;78407.63;;;-141.45;65.84
31403;BME280;18039;52.188;21.024;2023-02-23T01:06:39;78403.56;;;-141.45;66.18
31403;BME280;18039;52.188;21.024;2023-02-23T01:09:10;78409.66;;;-141.45;66.58
31403;BME280;18039;52.188;21.024;2023-02-23T01:11:40;78409.66;;;-141.45;66.43
31403;BME280;18039;52.188;21.024;2023-02-23T01:14:09;78409.66;;;-141.45;66.33
31403;BME280;18039;52.188;21.024;2023-02-23T01:16:36;78409.66;;;-141.45;67.05
31403;BME280;18039;52.188;21.024;2023-02-23T01:19:05;78417.78;;;-141.45;67.11
31403;BME280;18039;52.188;21.024;2023-02-23T01:21:36;78419.78;;;-141.45;67.16
31403;BME280;18039;52.188;21.024;2023-02-23T01:24:04;78425.88;;;-141.45;67.10
31403;BME280;18039;52.188;21.024;2023-02-23T01:26:36;78425.88;;;-141.45;67.91
31403;BME280;18039;52.188;21.024;2023-02-23T01:29:06;78425.88;;;-141.45;67.75
31403;BME280;18039;52.188;21.024;2023-02-23T01:31:39;78429.94;;;-141.45;67.89
31403;BME280;18039;52.188;21.024;2023-02-23T01:34:09;78429.94;;;-141.45;67.89
31403;BME280;18039;52.188;21.024;2023-02-23T01:36:39;78429.94;;;-141.45;67.98
31403;BME280;18039;52.188;21.024;2023-02-23T01:39:10;78417.78;;;-141.45;68.29
31403;BME280;18039;52.188;21.024;2023-02-23T01:41:39;78431.97;;;-141.45;68.75
31403;BME280;18039;52.188;21.024;2023-02-23T01:46:42;78434.00;;;-141.45;69.42
31403;BME280;18039;52.188;21.024;2023-02-23T01:49:31;78425.88;;;-141.45;69.09
31403;BME280;18039;52.188;21.024;2023-02-23T01:52:06;78425.88;;;-141.45;70.00
31403;BME280;18039;52.188;21.024;2023-02-23T01:54:40;78429.94;;;-141.45;69.99
31403;BME280;18039;52.188;21.024;2023-02-23T01:57:12;78429.94;;;-141.45;70.29
31403;BME280;18039;52.188;21.024;2023-02-23T01:59:43;78434.00;;;-141.45;70.93
31403;BME280;18039;52.188;21.024;2023-02-23T02:02:11;78442.09;;;-141.45;71.24
31403;BME280;18039;52.188;21.024;2023-02-23T02:04:41;78438.06;;;-141.45;72.27
31403;BME280;18039;52.188;21.024;2023-02-23T02:07:15;78442.09;;;-141.45;72.28
31403;BME280;18039;52.188;21.024;2023-02-23T02:09:47;78446.16;;;-141.45;72.91
31403;BME280;18039;52.188;21.024;2023-02-23T02:12:56;78442.09;;;-141.45;72.49
31403;BME280;18039;52.188;21.024;2023-02-23T02:15:30;78442.09;;;-141.45;73.32
31403;BME280;18039;52.188;21.024;2023-02-23T02:18:23;78442.09;;;-141.45;73.30
31403;BME280;18039;52.188;21.024;2023-02-23T02:21:20;78444.13;;;-141.45;73.83
31403;BME280;18039;52.188;21.024;2023-02-23T02:26:48;78438.06;;;-141.45;74.14
31403;BME280;18039;52.188;21.024;2023-02-23T02:41:08;78438.06;;;-141.45;77.04
31403;BME280;18039;52.188;21.024;2023-02-23T02:46:22;78413.72;;;-141.45;76.55
31403;BME280;18039;52.188;21.024;2023-02-23T02:49:28;78413.72;;;-141.45;76.67
31403;BME280;18039;52.188;21.024;2023-02-23T02:52:07;78409.66;;;-141.45;76.79
31403;BME280;18039;52.188;21.024;2023-02-23T02:54:46;78405.59;;;-141.45;77.22
31403;BME280;18039;52.188;21.024;2023-02-23T02:57:15;78401.53;;;-141.45;77.01
31403;BME280;18039;52.188;21.024;2023-02-23T02:59:46;78409.66;;;-141.45;77.29
31403;BME280;18039;52.188;21.024;2023-02-23T03:02:35;78401.53;;;-141.45;77.71
31403;BME280;18039;52.188;21.024;2023-02-23T03:05:25;78405.59;;;-141.45;77.84
31403;BME280;18039;52.188;21.024;2023-02-23T03:08:20;78409.66;;;-141.45;78.38
31403;BME280;18039;52.188;21.024;2023-02-23T03:11:10;78401.53;;;-141.45;78.78
31403;BME280;18039;52.188;21.024;2023-02-23T03:20:25;78425.88;;;-141.45;80.09
31403;BME280;18039;52.188;21.024;2023-02-23T03:23:20;78425.88;;;-141.45;80.74
31403;BME280;18039;52.188;21.024;2023-02-23T03:26:15;78417.78;;;-141.45;81.11
31403;BME280;18039;52.188;21.024;2023-02-23T03:34:59;78403.56;;;-141.45;81.97
31403;BME280;18039;52.188;21.024;2023-02-23T03:37:55;78397.50;;;-141.45;82.36
31403;BME280;18039;52.188;21.024;2023-02-23T03:40:45;78395.47;;;-141.45;82.58
31403;BME280;18039;52.188;21.024;2023-02-23T03:43:37;78389.38;;;-141.45;83.00
31403;BME280;18039;52.188;21.024;2023-02-23T03:46:28;78377.22;;;-141.45;83.13
31403;BME280;18039;52.188;21.024;2023-02-23T03:49:17;78373.16;;;-141.45;83.19
31403;BME280;18039;52.188;21.024;2023-02-23T03:52:14;78367.06;;;-141.45;83.20
31403;BME280;18039;52.188;21.024;2023-02-23T03:55:04;78373.16;;;-141.45;82.99
31403;BME280;18039;52.188;21.024;2023-02-23T03:57:55;78358.94;;;-141.45;83.54
31403;BME280;18039;52.188;21.024;2023-02-23T04:00:48;78360.97;;;-141.45;83.52
31403;BME280;18039;52.188;21.024;2023-02-23T04:03:38;78348.81;;;-141.45;83.55
31403;BME280;18039;52.188;21.024;2023-02-23T04:06:30;78344.75;;;-141.45;83.79
31403;BME280;18039;52.188;21.024;2023-02-23T04:09:17;78340.69;;;-141.45;83.77
31403;BME280;18039;52.188;21.024;2023-02-23T04:12:12;78340.69;;;-141.45;83.66
31403;BME280;18039;52.188;21.024;2023-02-23T04:15:16;78344.75;;;-141.45;84.24
31403;BME280;18039;52.188;21.024;2023-02-23T04:17:45;78336.66;;;-141.45;84.13
31403;BME280;18039;52.188;21.024;2023-02-23T04:20:13;78328.53;;;-141.45;83.88
31403;BME280;18039;52.188;21.024;2023-02-23T04:22:40;78340.69;;;-141.45;84.13
31403;BME280;18039;52.188;21.024;2023-02-23T04:25:08;78336.66;;;-141.45;84.14
31403;BME280;18039;52.188;21.024;2023-02-23T04:27:35;78336.66;;;-141.45;84.21
31403;BME280;18039;52.188;21.024;2023-02-23T04:30:04;78336.66;;;-141.45;84.71
31403;BME280;18039;52.188;21.024;2023-02-23T04:32:31;78324.47;;;-141.45;84.44
31403;BME280;18039;52.188;21.024;2023-02-23T04:34:58;78324.47;;;-141.45;84.71
31403;BME280;18039;52.188;21.024;2023-02-23T04:37:26;78326.50;;;-141.45;84.78
31403;BME280;18039;52.188;21.024;2023-02-23T04:39:53;78324.47;;;-141.45;85.12
31403;BME280;18039;52.188;21.024;2023-02-23T04:42:20;78320.41;;;-141.45;84.65
31403;BME280;18039;52.188;21.024;2023-02-23T04:44:47;78322.44;;;-141.45;84.73
31403;BME280;18039;52.188;21.024;2023-02-23T04:47:16;78320.41;;;-141.45;84.96
31403;BME280;18039;52.188;21.024;2023-02-23T04:49:43;78324.47;;;-141.45;85.17
31403;BME280;18039;52.188;21.024;2023-02-23T04:52:11;78328.53;;;-141.45;85.79
31403;BME280;18039;52.188;21.024;2023-02-23T04:54:39;78332.59;;;-141.45;85.67
31403;BME280;18039;52.188;21.024;2023-02-23T04:57:06;78340.69;;;-141.45;86.08
31403;BME280;18039;52.188;21.024;2023-02-23T04:59:35;78326.50;;;-141.45;85.74
31403;BME280;18039;52.188;21.024;2023-02-23T05:02:02;78332.59;;;-141.45;86.12
31403;BME280;18039;52.188;21.024;2023-02-23T05:04:31;78320.41;;;-141.45;85.79
31403;BME280;18039;52.188;21.024;2023-02-23T05:07:02;78320.41;;;-141.45;86.08
31403;BME280;18039;52.188;21.024;2023-02-23T05:09:30;78316.34;;;-141.45;85.77
31403;BME280;18039;52.188;21.024;2023-02-23T05:11:57;78316.34;;;-141.45;86.00
31403;BME280;18039;52.188;21.024;2023-02-23T05:14:24;78320.41;;;-141.45;86.25
31403;BME280;18039;52.188;21.024;2023-02-23T05:16:52;78320.41;;;-141.45;86.07
31403;BME280;18039;52.188;21.024;2023-02-23T05:19:19;78320.41;;;-141.45;86.70
31403;BME280;18039;52.188;21.024;2023-02-23T05:21:47;78316.34;;;-141.45;86.23
31403;BME280;18039;52.188;21.024;2023-02-23T05:24:17;78316.34;;;-141.45;86.48
31403;BME280;18039;52.188;21.024;2023-02-23T05:26:44;78312.31;;;-141.45;86.73
31403;BME280;18039;52.188;21.024;2023-02-23T05:29:12;78304.19;;;-141.45;86.11
31403;BME280;18039;52.188;21.024;2023-02-23T05:31:40;78312.31;;;-141.45;86.11
31403;BME280;18039;52.188;21.024;2023-02-23T05:34:08;78310.28;;;-141.45;86.14
31403;BME280;18039;52.188;21.024;2023-02-23T05:36:36;78316.34;;;-141.45;85.96
31403;BME280;18039;52.188;21.024;2023-02-23T05:39:04;78316.34;;;-141.45;86.20
31403;BME280;18039;52.188;21.024;2023-02-23T05:41:31;78318.38;;;-141.45;86.10
31403;BME280;18039;52.188;21.024;2023-02-23T05:43:59;78312.31;;;-141.45;86.07
31403;BME280;18039;52.188;21.024;2023-02-23T05:46:26;78320.41;;;-141.45;85.97
31403;BME280;18039;52.188;21.024;2023-02-23T05:48:59;78316.34;;;-141.45;85.83
31403;BME280;18039;52.188;21.024;2023-02-23T05:51:28;78308.25;;;-141.45;86.03
31403;BME280;18039;52.188;21.024;2023-02-23T05:53:56;78304.19;;;-141.45;85.92
31403;BME280;18039;52.188;21.024;2023-02-23T05:56:23;78304.19;;;-141.45;85.70
31403;BME280;18039;52.188;21.024;2023-02-23T05:58:55;78296.09;;;-141.45;85.23
31403;BME280;18039;52.188;21.024;2023-02-23T06:01:24;78287.97;;;-141.45;85.04
31403;BME280;18039;52.188;21.024;2023-02-23T06:03:52;78292.03;;;-141.45;84.89
31403;BME280;18039;52.188;21.024;2023-02-23T06:06:19;78292.03;;;-141.45;84.80
31403;BME280;18039;52.188;21.024;2023-02-23T06:08:48;78287.97;;;-141.45;84.51
31403;BME280;18039;52.188;21.024;2023-02-23T06:11:15;78287.97;;;-141.45;84.47
31403;BME280;18039;52.188;21.024;2023-02-23T06:13:44;78279.84;;;-141.45;83.70
31403;BME280;18039;52.188;21.024;2023-02-23T06:16:11;78275.81;;;-141.45;83.83
31403;BME280;18039;52.188;21.024;2023-02-23T06:18:39;78269.72;;;-141.45;83.27
31403;BME280;18039;52.188;21.024;2023-02-23T06:21:06;78259.56;;;-141.45;83.36
31403;BME280;18039;52.188;21.024;2023-02-23T06:23:34;78265.66;;;-141.45;82.63
31403;BME280;18039;52.188;21.024;2023-02-23T06:26:02;78263.63;;;-141.45;82.84
31403;BME280;18039;52.188;21.024;2023-02-23T06:28:29;78275.81;;;-141.45;82.34
31403;BME280;18039;52.188;21.024;2023-02-23T06:30:56;78263.63;;;-141.45;82.55
31403;BME280;18039;52.188;21.024;2023-02-23T06:33:24;78259.56;;;-141.45;82.48
31403;BME280;18039;52.188;21.024;2023-02-23T06:35:52;78271.75;;;-141.45;82.28
31403;BME280;18039;52.188;21.024;2023-02-23T06:38:20;78271.75;;;-141.45;82.00
31403;BME280;18039;52.188;21.024;2023-02-23T06:40:48;78271.75;;;-141.45;81.75
31403;BME280;18039;52.188;21.024;2023-02-23T06:43:15;78251.47;;;-141.45;81.40
31403;BME280;18039;52.188;21.024;2023-02-23T06:45:43;78247.41;;;-141.45;81.22
31403;BME280;18039;52.188;21.024;2023-02-23T06:48:11;78251.47;;;-141.45;81.53
31403;BME280;18039;52.188;21.024;2023-02-23T06:50:38;78245.38;;;-141.45;80.84
31403;BME280;18039;52.188;21.024;2023-02-23T06:53:06;78239.28;;;-141.45;80.60
31403;BME280;18039;52.188;21.024;2023-02-23T06:55:33;78239.28;;;-141.45;80.26
31403;BME280;18039;52.188;21.024;2023-02-23T06:58:00;78239.28;;;-141.45;80.70
31403;BME280;18039;52.188;21.024;2023-02-23T07:00:28;78231.19;;;-141.45;80.45
31403;BME280;18039;52.188;21.024;2023-02-23T07:02:56;78221.03;;;-141.45;79.83
31403;BME280;18039;52.188;21.024;2023-02-23T07:05:24;78219.00;;;-141.45;79.86
31403;BME280;18039;52.188;21.024;2023-02-23T07:07:52;78227.13;;;-141.45;79.54
31403;BME280;18039;52.188;21.024;2023-02-23T07:10:19;78229.16;;;-141.45;79.63
31403;BME280;18039;52.188;21.024;2023-02-23T07:12:47;78223.06;;;-141.45;79.95
31403;BME280;18039;52.188;21.024;2023-02-23T07:15:14;78219.00;;;-141.45;79.46
31403;BME280;18039;52.188;21.024;2023-02-23T07:17:44;78210.91;;;-141.45;79.48
31403;BME280;18039;52.188;21.024;2023-02-23T07:20:14;78194.69;;;-141.45;78.94
31403;BME280;18039;52.188;21.024;2023-02-23T07:22:42;78182.50;;;-141.45;79.12
31403;BME280;18039;52.188;21.024;2023-02-23T07:25:09;78182.50;;;-141.45;78.45
31403;BME280;18039;52.188;21.024;2023-02-23T07:27:37;78174.41;;;-141.45;78.25
31403;BME280;18039;52.188;21.024;2023-02-23T07:30:04;78154.13;;;-141.45;77.61
31403;BME280;18039;52.188;21.024;2023-02-23T07:32:32;78150.06;;;-141.45;77.67
31403;BME280;18039;52.188;21.024;2023-02-23T07:35:01;78166.28;;;-141.45;77.64
31403;BME280;18039;52.188;21.024;2023-02-23T07:37:29;78162.22;;;-141.45;77.62
31403;BME280;18039;52.188;21.024;2023-02-23T07:39:56;78158.16;;;-141.45;77.75
31403;BME280;18039;52.188;21.024;2023-02-23T07:42:26;78146.00;;;-141.45;77.37
31403;BME280;18039;52.188;21.024;2023-02-23T07:44:54;78146.00;;;-141.45;77.29
31403;BME280;18039;52.188;21.024;2023-02-23T07:47:22;78137.91;;;-141.45;77.70
31403;BME280;18039;52.188;21.024;2023-02-23T07:49:57;78119.63;;;-141.45;77.21
31403;BME280;18039;52.188;21.024;2023-02-23T07:52:25;78101.38;;;-141.45;76.83
31403;BME280;18039;52.188;21.024;2023-02-23T07:54:53;78068.94;;;-141.45;76.03
31403;BME280;18039;52.188;21.024;2023-02-23T07:57:20;78073.00;;;-141.45;75.42
31403;BME280;18039;52.188;21.024;2023-02-23T07:59:50;78068.94;;;-141.45;75.23
31403;BME280;18039;52.188;21.024;2023-02-23T08:02:18;78056.78;;;-141.45;75.11
31403;BME280;18039;52.188;21.024;2023-02-23T08:04:45;78036.50;;;-141.45;74.93
31403;BME280;18039;52.188;21.024;2023-02-23T08:07:14;78000.00;;;-141.45;74.42
31403;BME280;18039;52.188;21.024;2023-02-23T08:09:41;77987.81;;;-141.45;74.10
31403;BME280;18039;52.188;21.024;2023-02-23T08:12:08;77979.72;;;-141.45;72.89
31403;BME280;18039;52.188;21.024;2023-02-23T08:14:36;77991.88;;;-141.45;72.94
31403;BME280;18039;52.188;21.024;2023-02-23T08:17:03;77995.94;;;-141.45;73.58
31403;BME280;18039;52.188;21.024;2023-02-23T08:19:30;77983.75;;;-141.45;73.46
31403;BME280;18039;52.188;21.024;2023-02-23T08:21:58;77987.81;;;-141.45;72.41
31403;BME280;18039;52.188;21.024;2023-02-23T08:24:25;78004.03;;;-141.45;72.89
31403;BME280;18039;52.188;21.024;2023-02-23T08:26:53;77995.94;;;-141.45;73.11
31403;BME280;18039;52.188;21.024;2023-02-23T08:29:20;78000.00;;;-141.45;72.81
31403;BME280;18039;52.188;21.024;2023-02-23T08:31:48;77995.94;;;-141.45;72.95
31403;BME280;18039;52.188;21.024;2023-02-23T08:34:18;77983.75;;;-141.45;73.01
31403;BME280;18039;52.188;21.024;2023-02-23T08:36:46;77987.81;;;-141.45;72.81
31403;BME280;18039;52.188;21.024;2023-02-23T08:39:14;78004.03;;;-141.45;73.05
31403;BME280;18039;52.188;21.024;2023-02-23T08:41:41;78004.03;;;-141.45;73.27
31403;BME280;18039;52.188;21.024;2023-02-23T08:44:08;77995.94;;;-141.45;73.50
31403;BME280;18039;52.188;21.024;2023-02-23T08:46:36;77975.66;;;-141.45;73.32
31403;BME280;18039;52.188;21.024;2023-02-23T08:49:03;77963.50;;;-141.45;73.17
31403;BME280;18039;52.188;21.024;2023-02-23T08:51:32;77963.50;;;-141.45;72.98
31403;BME280;18039;52.188;21.024;2023-02-23T08:54:00;77943.22;;;-141.45;72.33
31403;BME280;18039;52.188;21.024;2023-02-23T08:56:28;77916.84;;;-141.45;73.38
31403;BME280;18039;52.188;21.024;2023-02-23T08:58:56;77904.69;;;-141.45;71.57
31403;BME280;18039;52.188;21.024;2023-02-23T09:01:23;77876.28;;;-141.45;71.18
31403;BME280;18039;52.188;21.024;2023-02-23T09:03:51;77868.19;;;-141.45;70.98
31403;BME280;18039;52.188;21.024;2023-02-23T09:06:20;77878.31;;;-141.45;71.83
31403;BME280;18039;52.188;21.024;2023-02-23T09:08:49;77868.19;;;-141.45;70.99
31403;BME280;18039;52.188;21.024;2023-02-23T09:11:16;77843.84;;;-141.45;70.97
31403;BME280;18039;52.188;21.024;2023-02-23T09:13:44;77837.75;;;-141.45;69.99
31403;BME280;18039;52.188;21.024;2023-02-23T09:16:12;77813.44;;;-141.45;70.67
31403;BME280;18039;52.188;21.024;2023-02-23T09:18:39;77797.19;;;-141.45;70.07
31403;BME280;18039;52.188;21.024;2023-02-23T09:21:14;77768.81;;;-141.45;69.78
31403;BME280;18039;52.188;21.024;2023-02-23T09:23:45;77748.53;;;-141.45;68.75
31403;BME280;18039;52.188;21.024;2023-02-23T09:26:14;77746.50;;;-141.45;68.03
31403;BME280;18039;52.188;21.024;2023-02-23T09:28:43;77758.69;;;-141.45;68.37
31403;BME280;18039;52.188;21.024;2023-02-23T09:31:14;77750.56;;;-141.45;68.45
31403;BME280;18039;52.188;21.024;2023-02-23T09:33:42;77732.31;;;-141.45;68.18
31403;BME280;18039;52.188;21.024;2023-02-23T09:36:18;77699.88;;;-141.45;67.45
31403;BME280;18039;52.188;21.024;2023-02-23T09:38:47;77699.88;;;-141.45;67.71
31403;BME280;18039;52.188;21.024;2023-02-23T09:44:07;77689.72;;;-141.45;66.74
31403;BME280;18039;52.188;21.024;2023-02-23T09:47:10;77691.75;;;-141.45;67.47
31403;BME280;18039;52.188;21.024;2023-02-23T09:49:41;77679.59;;;-141.45;67.39
31403;BME280;18039;52.188;21.024;2023-02-23T09:52:17;77667.44;;;-141.45;67.17
31403;BME280;18039;52.188;21.024;2023-02-23T09:54:46;77671.47;;;-141.45;66.52
31403;BME280;18039;52.188;21.024;2023-02-23T09:57:18;77679.59;;;-141.45;67.03
31403;BME280;18039;52.188;21.024;2023-02-23T09:59:47;77685.69;;;-141.45;67.75
31403;BME280;18039;52.188;21.024;2023-02-23T10:02:27;77671.47;;;-141.45;67.47
31403;BME280;18039;52.188;21.024;2023-02-23T10:05:03;77671.47;;;-141.45;67.55
31403;BME280;18039;52.188;21.024;2023-02-23T10:10:22;77659.31;;;-141.45;67.34
31403;BME280;18039;52.188;21.024;2023-02-23T10:13:37;77653.22;;;-141.45;67.82
31403;BME280;18039;52.188;21.024;2023-02-23T10:16:38;77643.09;;;-141.45;67.60
31403;BME280;18039;52.188;21.024;2023-02-23T10:19:17;77622.81;;;-141.45;67.79
31403;BME280;18039;52.188;21.024;2023-02-23T10:21:54;77590.38;;;-141.45;67.49
31403;BME280;18039;52.188;21.024;2023-02-23T10:24:43;77557.94;;;-141.45;67.02
31403;BME280;18039;52.188;21.024;2023-02-23T10:27:17;77543.72;;;-141.45;66.52
31403;BME280;18039;52.188;21.024;2023-02-23T10:29:48;77537.66;;;-141.45;65.82
31403;BME280;18039;52.188;21.024;2023-02-23T10:32:41;77533.59;;;-141.45;65.64
31403;BME280;18039;52.188;21.024;2023-02-23T10:35:17;77525.47;;;-141.45;65.53
31403;BME280;18039;52.188;21.024;2023-02-23T10:37:46;77517.38;;;-141.45;65.24
31403;BME280;18039;52.188;21.024;2023-02-23T10:40:20;77545.75;;;-141.45;65.47
31403;BME280;18039;52.188;21.024;2023-02-23T10:42:51;77537.66;;;-141.45;65.59
31403;BME280;18039;52.188;21.024;2023-02-23T10:45:22;77517.38;;;-141.45;65.68
31403;BME280;18039;52.188;21.024;2023-02-23T10:48:00;77489.00;;;-141.45;65.89
31403;BME280;18039;52.188;21.024;2023-02-23T10:50:31;77464.66;;;-141.45;65.01
31403;BME280;18039;52.188;21.024;2023-02-23T10:53:32;77440.31;;;-141.45;64.89
31403;BME280;18039;52.188;21.024;2023-02-23T10:56:11;77442.34;;;-141.45;64.38
31403;BME280;18039;52.188;21.024;2023-02-23T11:01:27;77432.22;;;-141.45;64.28
31403;BME280;18039;52.188;21.024;2023-02-23T11:04:11;77411.94;;;-141.45;63.62
31403;BME280;18039;52.188;21.024;2023-02-23T11:06:40;77411.94;;;-141.45;63.84
31403;BME280;18039;52.188;21.024;2023-02-23T11:09:25;77379.50;;;-141.45;64.13
31403;BME280;18039;52.188;21.024;2023-02-23T11:12:38;77359.22;;;-141.45;63.42
31403;BME280;18039;52.188;21.024;2023-02-23T11:15:26;77330.84;;;-141.45;63.10
31403;BME280;18039;52.188;21.024;2023-02-23T11:18:32;77326.78;;;-141.45;62.17
31403;BME280;18039;52.188;21.024;2023-02-23T11:21:00;77324.75;;;-141.45;62.31
31403;BME280;18039;52.188;21.024;2023-02-23T11:23:33;77310.56;;;-141.45;62.35
31403;BME280;18039;52.188;21.024;2023-02-23T11:26:03;77306.50;;;-141.45;61.90
31403;BME280;18039;52.188;21.024;2023-02-23T11:28:40;77326.78;;;-141.45;61.78
31403;BME280;18039;52.188;21.024;2023-02-23T11:31:15;77322.72;;;-141.45;61.91
31403;BME280;18039;52.188;21.024;2023-02-23T11:33:45;77300.44;;;-141.45;61.91
31403;BME280;18039;52.188;21.024;2023-02-23T11:36:26;77290.28;;;-141.45;61.75
31403;BME280;18039;52.188;21.024;2023-02-23T11:39:40;77282.19;;;-141.45;61.35
31403;BME280;18039;52.188;21.024;2023-02-23T11:41:42;77270.00;;;-141.45;60.99
31403;BME280;18039;52.188;21.024;2023-02-23T11:44:21;77294.34;;;-141.45;62.37
31403;BME280;18039;52.188;21.024;2023-02-23T11:46:50;77278.13;;;-141.45;62.08
31403;BME280;18039;52.188;21.024;2023-02-23T11:49:30;77288.25;;;-141.45;61.70
31403;BME280;18039;52.188;21.024;2023-02-23T11:51:59;77290.28;;;-141.45;61.34
31403;BME280;18039;52.188;21.024;2023-02-23T11:54:28;77278.13;;;-141.45;61.44
31403;BME280;18039;52.188;21.024;2023-02-23T11:56:56;77261.91;;;-141.45;61.34
31403;BME280;18039;52.188;21.024;2023-02-23T11:59:33;77245.69;;;-141.45;61.57
31403;BME280;18039;52.188;21.024;2023-02-23T12:04:42;77233.53;;;-141.45;61.30
31403;BME280;18039;52.188;21.024;2023-02-23T12:07:33;77217.28;;;-141.45;61.96
31403;BME280;18039;52.188;21.024;2023-02-23T12:13:19;77201.06;;;-141.45;60.79
31403;BME280;18039;52.188;21.024;2023-02-23T12:23:40;77192.97;;;-141.45;60.56
31403;BME280;18039;52.188;21.024;2023-02-23T12:26:12;77188.91;;;-141.45;60.79
31403;BME280;18039;52.188;21.024;2023-02-23T12:34:01;77156.47;;;-141.45;60.19
31403;BME280;18039;52.188;21.024;2023-02-23T12:47:08;77152.41;;;-141.45;60.17
31403;BME280;18039;52.188;21.024;2023-02-23T12:49:44;77152.41;;;-141.45;60.84
31403;BME280;18039;52.188;21.024;2023-02-23T12:52:24;77148.38;;;-141.45;60.52
31403;BME280;18039;52.188;21.024;2023-02-23T12:54:53;77154.44;;;-141.45;60.29
31403;BME280;18039;52.188;21.024;2023-02-23T12:57:44;77156.47;;;-141.45;60.56
31403;BME280;18039;52.188;21.024;2023-02-23T13:08:57;77140.25;;;-141.45;61.31
31403;BME280;18039;52.188;21.024;2023-02-23T13:14:16;77132.16;;;-141.45;61.47
31403;BME280;18039;52.188;21.024;2023-02-23T13:16:58;77105.78;;;-141.45;61.28
31403;BME280;18039;52.188;21.024;2023-02-23T13:19:40;77095.66;;;-141.45;61.16
31403;BME280;18039;52.188;21.024;2023-02-23T13:22:27;77099.72;;;-141.45;60.67
31403;BME280;18039;52.188;21.024;2023-02-23T13:24:58;77113.91;;;-141.45;60.76
31403;BME280;18039;52.188;21.024;2023-02-23T13:27:37;77136.19;;;-141.45;61.39
31403;BME280;18039;52.188;21.024;2023-02-23T13:30:10;77144.31;;;-141.45;62.06
31403;BME280;18039;52.188;21.024;2023-02-23T13:32:38;77144.31;;;-141.45;62.28
31403;BME280;18039;52.188;21.024;2023-02-23T13:35:17;77136.19;;;-141.45;62.23
31403;BME280;18039;52.188;21.024;2023-02-23T13:38:03;77124.03;;;-141.45;62.15
31403;BME280;18039;52.188;21.024;2023-02-23T13:41:04;77132.16;;;-141.45;62.69
31403;BME280;18039;52.188;21.024;2023-02-23T13:46:55;77107.81;;;-141.45;62.19
31403;BME280;18039;52.188;21.024;2023-02-23T13:49:39;77095.66;;;-141.45;62.05
31403;BME280;18039;52.188;21.024;2023-02-23T13:52:30;77095.66;;;-141.45;62.15
31403;BME280;18039;52.188;21.024;2023-02-23T13:55:00;77083.50;;;-141.45;61.83
31403;BME280;18039;52.188;21.024;2023-02-23T13:57:33;77087.53;;;-141.45;61.15
31403;BME280;18039;52.188;21.024;2023-02-23T14:00:02;77087.53;;;-141.45;61.52
31403;BME280;18039;52.188;21.024;2023-02-23T14:02:39;77091.59;;;-141.45;61.59
31403;BME280;18039;52.188;21.024;2023-02-23T14:05:21;77095.66;;;-141.45;61.51
31403;BME280;18039;52.188;21.024;2023-02-23T14:07:59;77087.53;;;-141.45;61.73
31403;BME280;18039;52.188;21.024;2023-02-23T14:10:41;77089.56;;;-141.45;61.75
31403;BME280;18039;52.188;21.024;2023-02-23T14:15:46;77087.53;;;-141.45;61.65
31403;BME280;18039;52.188;21.024;2023-02-23T14:21:08;77085.50;;;-141.45;62.22
31403;BME280;18039;52.188;21.024;2023-02-23T14:24:15;77071.31;;;-141.45;61.46
31403;BME280;18039;52.188;21.024;2023-02-23T14:30:19;77063.22;;;-141.45;61.92
31403;BME280;18039;52.188;21.024;2023-02-23T14:32:48;77061.19;;;-141.45;62.12
31403;BME280;18039;52.188;21.024;2023-02-23T14:40:38;77034.84;;;-141.45;61.99
31403;BME280;18039;52.188;21.024;2023-02-23T14:43:59;77030.78;;;-141.45;61.81